Terminal Aerodrome Forecast
Issued by NWS

Home | Current Version | Previous Version | Text Only | Print | Product List | Glossary On
Versions: 1 2 3 4 5 6 7 8 9 10 11 12 13
571
FTUS44 KCRP 250535
TAFLRD
TAF
KLRD 250535Z 2506/2606 14012KT P6SM SCT150
     FM250700 15007KT P6SM SCT012
      TEMPO 2511/2514 BKN012
     FM251400 19008KT P6SM FEW025
     FM251900 28007KT P6SM SKC
     FM260100 14012KT P6SM SKC=

USA.gov is the U.S. government's official web portal to all federal, state and local government web resources and services.